Sklinnabanken — LJQM — position and weather

sailwx.info

Track history (hours):
 
Tides and Currents Weather Stations Pressure Air Temp Water Temp Dewpoint Dewpoint Depression Visibility Wind Speed Wind Dir Waves Ship Positions

Sklinnabanken

Last reported at 2014-Dec-12 14:26 UTC. Time now 2014-Dec-18 20:15 UTC.
Position N 62°27' E 006°12'.

Length 28 m; draft 6 m.

Type: Fishing. MMSI: 259648000.

Date/timePositionNaut miles runAvg speedWind from/ knotsBaromVisibWave heightAir tempDewpointWater temp
2014-Dec-12 14:26N 62°27' E 006°12'  
2014-Dec-05 07:25N 62°26' E 006°15'0 0.0
2014-Dec-05 06:33N 62°26' E 006°15'6 5.8
2014-Dec-05 05:34N 62°27' E 006°02'8 7.8
2014-Dec-05 04:33N 62°22' E 005°48'8 7.7
2014-Dec-05 03:34N 62°18' E 005°34'8 7.9
2014-Dec-05 02:33N 62°16' E 005°18'8 7.9
2014-Dec-05 01:34N 62°12' E 005°03'7 7.1
2014-Dec-05 00:33N 62°05' E 005°07'9 8.6
2014-Dec-04 23:33N 61°57' E 005°08'7 7.1
2014-Dec-04 22:31N 61°50' E 005°16'8 8.5
2014-Dec-04 21:34N 61°46' E 005°01'8 8.1
2014-Dec-04 20:33N 61°38' E 004°59'8 7.9
2014-Dec-04 19:34N 61°30' E 004°59'8 8.5
2014-Dec-04 18:34N 61°23' E 004°49'9 8.8
2014-Dec-04 17:34N 61°14' E 004°47'9 8.7
2014-Dec-04 16:33N 61°05' E 004°44'9 8.8
2014-Dec-04 15:33N 60°57' E 004°42'9 8.6
2014-Dec-04 14:33N 60°48' E 004°45'9 9.1
2014-Dec-04 13:34N 60°40' E 004°52'9 9.3
2014-Dec-04 12:34N 60°31' E 004°58'62 7.6
2014-Dec-04 04:26N 59°30' E 005°13'7 8.6
2014-Dec-04 03:34N 59°23' E 005°18'9 8.9
2014-Dec-04 02:33N 59°14' E 005°21'8 8.0
2014-Dec-04 01:34N 59°06' E 005°20'8 8.1
2014-Dec-04 00:33N 58°58' E 005°17'8 8.3
2014-Dec-03 23:33N 58°50' E 005°15'  
Track history (hours):
 
Tides and Currents Weather Stations Pressure Air Temp Water Temp Dewpoint Dewpoint Depression Visibility Wind Speed Wind Dir Waves Ship Positions

Sklinnabanken

Last reported at 2014-Dec-12 14:26 UTC. Time now 2014-Dec-18 20:15 UTC.
Position N 62°27' E 006°12'.

Length 28 m; draft 6 m.

Type: Fishing. MMSI: 259648000.

Date/timePositionNaut miles runAvg speedWind from/ knotsBaromVisibWave heightAir tempDewpointWater temp
2014-Dec-12 14:26N 62°27' E 006°12'  
2014-Dec-05 07:25N 62°26' E 006°15'0 0.0
2014-Dec-05 06:33N 62°26' E 006°15'6 5.8
2014-Dec-05 05:34N 62°27' E 006°02'8 7.8
2014-Dec-05 04:33N 62°22' E 005°48'8 7.7
2014-Dec-05 03:34N 62°18' E 005°34'8 7.9
2014-Dec-05 02:33N 62°16' E 005°18'8 7.9
2014-Dec-05 01:34N 62°12' E 005°03'7 7.1
2014-Dec-05 00:33N 62°05' E 005°07'9 8.6
2014-Dec-04 23:33N 61°57' E 005°08'7 7.1
2014-Dec-04 22:31N 61°50' E 005°16'8 8.5
2014-Dec-04 21:34N 61°46' E 005°01'8 8.1
2014-Dec-04 20:33N 61°38' E 004°59'8 7.9
2014-Dec-04 19:34N 61°30' E 004°59'8 8.5
2014-Dec-04 18:34N 61°23' E 004°49'9 8.8
2014-Dec-04 17:34N 61°14' E 004°47'9 8.7
2014-Dec-04 16:33N 61°05' E 004°44'9 8.8
2014-Dec-04 15:33N 60°57' E 004°42'9 8.6
2014-Dec-04 14:33N 60°48' E 004°45'9 9.1
2014-Dec-04 13:34N 60°40' E 004°52'9 9.3
2014-Dec-04 12:34N 60°31' E 004°58'62 7.6
2014-Dec-04 04:26N 59°30' E 005°13'7 8.6
2014-Dec-04 03:34N 59°23' E 005°18'9 8.9
2014-Dec-04 02:33N 59°14' E 005°21'8 8.0
2014-Dec-04 01:34N 59°06' E 005°20'8 8.1
2014-Dec-04 00:33N 58°58' E 005°17'8 8.3
2014-Dec-03 23:33N 58°50' E 005°15'  

Dump ship's entire track history